Time;durP1;ratioP1;P1;durP2;ratioP2;P2;SDS_P1;SDS_P2;PMS_P1;PMS_P2;Temp;Humidity;BMP_temperature;BMP_pressure;BME280_temperature;BME280_humidity;BME280_pressure;Samples;Min_cycle;Max_cycle;Signal;HPM_P1;HPM_P2
2022/08/18 00:02:24;;;;;;;27.85;12.07;;;;;;;20.83;54.96;99866.50;4981240;28;20045;-95
2022/08/18 00:05:09;;;;;;;30.88;11.38;;;;;;;20.82;55.16;99864.88;4997103;28;20120;-87
2022/08/18 00:07:47;;;;;;;31.60;11.80;;;;;;;20.96;55.44;99897.72;4956161;29;20069;-86
2022/08/18 00:10:20;;;;;;;34.33;10.95;;;;;;;20.61;55.72;99856.97;4955870;28;20152;-86
2022/08/18 00:12:46;;;;;;;57.22;12.32;;;;;;;20.74;56.13;99887.38;4924320;29;20066;-89
2022/08/18 00:15:25;;;;;;;43.00;11.88;;;;;;;20.75;56.39;99888.97;4905254;29;20136;-86
2022/08/18 00:18:06;;;;;;;28.00;11.52;;;;;;;20.57;56.59;99866.41;4917681;29;20056;-87
2022/08/18 00:20:55;;;;;;;19.30;11.23;;;;;;;20.64;56.57;99892.34;4939114;29;20054;-87
2022/08/18 00:23:31;;;;;;;16.23;10.50;;;;;;;20.23;56.68;99840.28;4958614;29;20596;-87
2022/08/18 00:26:23;;;;;;;27.35;11.35;;;;;;;20.58;56.71;99890.22;4938395;29;20055;-86
2022/08/18 00:29:08;;;;;;;20.77;11.23;;;;;;;20.31;56.54;99844.81;4924814;29;20052;-87
2022/08/18 00:31:34;;;;;;;22.08;11.73;;;;;;;20.28;56.70;99846.34;4932846;29;20048;-86
2022/08/18 00:34:01;;;;;;;29.52;11.50;;;;;;;20.54;56.58;99894.91;4924158;29;20190;-88
2022/08/18 00:36:30;;;;;;;19.17;10.73;;;;;;;20.53;56.72;99893.28;4936203;29;20047;-87
2022/08/18 00:39:43;;;;;;;25.17;11.45;;;;;;;20.51;56.90;99895.66;4938212;29;20063;-87
2022/08/18 00:42:54;;;;;;;21.45;10.70;;;;;;;20.42;57.08;99891.06;4932956;29;20698;-86
2022/08/18 00:45:26;;;;;;;28.83;11.15;;;;;;;20.24;57.07;99876.03;4948062;28;20047;-87
2022/08/18 00:47:57;;;;;;;20.65;11.05;;;;;;;20.04;57.58;99849.41;4945592;28;20050;-88
2022/08/18 00:50:33;;;;;;;16.98;10.43;;;;;;;20.23;57.37;99879.16;4988478;28;20049;-87
2022/08/18 00:55:29;;;;;;;23.13;10.88;;;;;;;20.33;57.20;99890.50;5016782;28;20037;-88
2022/08/18 00:58:44;;;;;;;27.48;11.00;;;;;;;20.04;57.16;99836.34;4980705;28;20060;-87
2022/08/18 01:01:12;;;;;;;21.02;11.32;;;;;;;20.02;57.53;99824.00;4948710;29;20070;-87
2022/08/18 01:04:21;;;;;;;26.70;11.25;;;;;;;20.34;58.17;99885.75;4989046;28;20050;-88
2022/08/18 01:07:13;;;;;;;28.33;10.77;;;;;;;20.30;58.73;99890.44;4994598;28;20047;-87
2022/08/18 01:09:39;;;;;;;31.25;11.55;;;;;;;19.99;58.66;99844.94;4959417;28;20053;-87
2022/08/18 01:21:53;;;;;;;25.83;12.20;;;;;;;20.18;57.91;99891.34;5015582;28;20046;-88
2022/08/18 01:28:08;;;;;;;19.77;11.32;;;;;;;19.74;57.59;99824.19;4994023;28;20093;-87
2022/08/18 01:33:17;;;;;;;51.63;15.27;;;;;;;19.91;58.15;99866.19;5012124;28;20038;-87
2022/08/18 01:35:48;;;;;;;36.83;13.65;;;;;;;19.98;58.20;99886.94;5006049;28;20136;-87
2022/08/18 01:41:21;;;;;;;26.15;13.25;;;;;;;19.98;58.00;99896.06;5015184;28;20056;-87
2022/08/18 01:43:50;;;;;;;40.63;13.20;;;;;;;20.03;58.40;99906.06;4997813;28;20121;-87
2022/08/18 01:46:23;;;;;;;55.08;14.85;;;;;;;19.61;58.26;99840.91;4996599;28;20527;-89
2022/08/18 01:48:50;;;;;;;36.47;14.00;;;;;;;19.71;58.27;99856.22;4966747;28;20096;-87
2022/08/18 01:51:27;;;;;;;29.05;15.55;;;;;;;20.02;58.37;99901.69;4996724;28;20045;-91
2022/08/18 01:56:47;;;;;;;35.33;16.05;;;;;;;19.90;58.58;99899.84;4975604;28;20464;-87
2022/08/18 02:05:23;;;;;;;34.83;17.27;;;;;;;19.84;58.84;99907.66;4976374;28;20054;-88
2022/08/18 02:07:50;;;;;;;38.53;17.98;;;;;;;19.81;59.05;99919.47;4976622;28;20145;-87
2022/08/18 02:10:18;;;;;;;38.17;18.95;;;;;;;19.62;59.58;99913.81;4981794;28;20472;-87
2022/08/18 02:12:58;;;;;;;32.92;17.58;;;;;;;19.46;59.93;99892.44;4981479;28;20146;-88
2022/08/18 02:15:33;;;;;;;46.78;20.35;;;;;;;19.52;59.68;99897.72;4997356;28;20072;-87
2022/08/18 02:21:34;;;;;;;53.63;22.92;;;;;;;19.65;59.64;99930.56;4958015;28;20035;-88
2022/08/18 02:24:01;;;;;;;47.63;22.85;;;;;;;19.42;59.83;99905.41;4968670;28;20046;-87
2022/08/18 02:28:54;;;;;;;45.80;24.00;;;;;;;19.41;59.61;99900.25;4993682;28;20463;-87
2022/08/18 02:36:32;;;;;;;46.83;25.88;;;;;;;19.65;59.98;99938.91;4963941;28;20047;-95
2022/08/18 02:39:20;;;;;;;48.83;25.35;;;;;;;19.62;59.87;99941.56;4974232;28;20125;-87
2022/08/18 02:41:46;;;;;;;50.88;25.42;;;;;;;19.41;59.92;99920.44;4972834;28;20390;-88
2022/08/18 02:44:19;;;;;;;47.58;26.52;;;;;;;19.06;60.32;99864.09;4981544;28;20019;-87
2022/08/18 02:47:10;;;;;;;58.45;28.08;;;;;;;19.63;60.17;99957.03;4992617;28;20033;-86
2022/08/18 02:50:11;;;;;;;56.58;27.48;;;;;;;19.28;60.37;99902.28;4994208;28;20054;-87
2022/08/18 02:53:02;;;;;;;58.95;26.50;;;;;;;19.64;60.29;99950.38;4939572;28;20196;-88
2022/08/18 02:55:44;;;;;;;55.28;25.60;;;;;;;19.65;60.36;99946.41;4970689;28;20059;-87
2022/08/18 03:01:09;;;;;;;65.57;28.85;;;;;;;19.11;60.44;99872.16;4915632;29;20048;-87
2022/08/18 03:04:01;;;;;;;60.92;28.45;;;;;;;19.59;60.58;99947.81;4900809;29;20077;-87
2022/08/18 03:06:30;;;;;;;67.47;29.40;;;;;;;19.36;60.43;99915.16;4897888;29;20116;-88
2022/08/18 03:09:23;;;;;;;46.95;28.05;;;;;;;19.60;60.52;99944.69;4882770;29;20056;-87
2022/08/18 03:12:07;;;;;;;54.45;29.77;;;;;;;19.47;60.65;99929.31;4863738;29;20063;-87
2022/08/18 03:14:45;;;;;;;79.65;29.02;;;;;;;19.49;60.41;99927.78;4880631;29;20061;-88
2022/08/18 03:17:18;;;;;;;53.25;28.65;;;;;;;19.27;60.48;99899.88;4894679;29;20143;-89
2022/08/18 03:19:49;;;;;;;51.70;28.95;;;;;;;19.45;60.76;99926.88;4868729;29;20542;-91
2022/08/18 03:22:31;;;;;;;50.22;29.70;;;;;;;19.46;60.54;99924.91;4878018;29;20430;-87
2022/08/18 03:25:12;;;;;;;107.70;31.70;;;;;;;19.16;60.81;99874.66;4880665;29;20143;-88
2022/08/18 03:27:44;;;;;;;66.28;29.05;;;;;;;19.29;60.81;99887.25;4895675;29;20056;-87
2022/08/18 03:30:14;;;;;;;57.33;28.17;;;;;;;19.64;60.79;99939.28;4895635;29;20063;-87
2022/08/18 03:32:46;;;;;;;66.78;29.05;;;;;;;19.07;60.60;99852.66;4909657;29;20125;-87
2022/08/18 03:35:13;;;;;;;65.85;28.15;;;;;;;19.37;60.80;99883.53;4908858;29;20044;-87
2022/08/18 03:38:00;;;;;;;50.90;25.80;;;;;;;19.76;60.72;99946.69;4936696;28;20060;-88
2022/08/18 03:43:55;;;;;;;44.92;23.67;;;;;;;19.52;60.86;99901.31;4961515;28;20433;-88
2022/08/18 03:46:27;;;;;;;67.05;24.80;;;;;;;19.51;60.68;99887.81;4888595;29;20516;-88
2022/08/18 03:48:58;;;;;;;56.47;23.63;;;;;;;19.97;60.34;99946.38;4938685;29;20035;-87
2022/08/18 03:52:26;;;;;;;44.90;22.88;;;;;;;20.00;60.05;99943.72;4955406;28;20087;-88
2022/08/18 03:57:44;;;;;;;109.25;24.55;;;;;;;19.74;60.51;99891.56;4934522;28;20039;-88
2022/08/18 04:00:13;;;;;;;77.78;24.15;;;;;;;20.10;60.22;99942.34;4950172;28;20044;-88
2022/08/18 04:03:05;;;;;;;97.97;26.17;;;;;;;20.10;60.01;99939.56;4950196;29;20031;-88
2022/08/18 04:05:39;;;;;;;152.50;30.05;;;;;;;19.77;60.29;99890.84;4953140;28;20051;-88
2022/08/18 04:08:06;;;;;;;102.95;25.33;;;;;;;20.06;60.54;99933.09;4975875;28;20520;-87
2022/08/18 04:10:43;;;;;;;246.77;33.17;;;;;;;20.07;60.34;99923.63;4960746;28;20050;-87
2022/08/18 04:13:10;;;;;;;129.57;29.33;;;;;;;20.24;60.36;99953.75;4960266;28;20081;-88
2022/08/18 04:15:36;;;;;;;;;;;;;;;20.27;60.35;99952.25;4942726;28;20044;-87
2022/08/18 04:18:07;;;;;;;79.95;31.77;;;;;;;19.86;60.65;99894.22;4956211;28;19921;-95
2022/08/18 04:21:08;;;;;;;63.35;32.90;;;;;;;20.00;60.43;99917.91;4975116;28;20122;-87
2022/08/18 04:24:08;;;;;;;76.05;38.30;;;;;;;19.71;60.84;99867.31;4983369;28;20050;-87
2022/08/18 04:26:40;;;;;;;96.57;43.17;;;;;;;20.13;60.91;99941.59;4987074;28;20047;-89
2022/08/18 04:29:20;;;;;;;122.32;46.08;;;;;;;20.09;61.36;99937.94;4979517;28;20039;-88
2022/08/18 04:31:46;;;;;;;188.15;48.13;;;;;;;20.30;61.58;99968.97;4978896;28;20046;-88
2022/08/18 04:34:44;;;;;;;;;;;;;;;20.34;61.88;99969.06;4968189;28;20067;-88
2022/08/18 04:37:20;;;;;;;;;;;;;;;;;;;;;
2022/08/18 04:40:07;;;;;;;173.18;57.35;;;;;;;20.28;61.28;99951.88;4994924;28;20120;-88
2022/08/18 04:42:33;;;;;;;127.07;59.72;;;;;;;20.24;60.68;99948.22;4979481;28;20090;-88
2022/08/18 04:45:00;;;;;;;143.45;63.22;;;;;;;20.03;60.44;99915.19;4975615;28;20120;-88
2022/08/18 04:48:06;;;;;;;139.70;63.00;;;;;;;20.45;60.24;99967.31;4997431;28;20467;-88
2022/08/18 04:50:35;;;;;;;126.68;63.08;;;;;;;20.51;59.96;99971.44;4963755;28;20046;-88
2022/08/18 04:55:53;;;;;;;127.32;62.03;;;;;;;20.25;61.02;99916.50;4979385;28;20053;-94
2022/08/18 04:58:22;;;;;;;116.30;63.00;;;;;;;20.54;60.68;99958.81;4993092;28;20067;-95
2022/08/18 05:01:04;;;;;;;116.32;60.47;;;;;;;20.55;59.97;99954.84;5016425;28;20511;-89
2022/08/18 05:03:49;;;;;;;111.50;57.30;;;;;;;20.40;59.86;99918.41;4982452;28;20072;-94
2022/08/18 05:06:20;;;;;;;123.38;57.15;;;;;;;20.35;59.79;99915.13;5013355;28;20046;-90
2022/08/18 05:08:49;;;;;;;119.25;52.88;;;;;;;20.74;59.34;99965.97;4959131;28;20046;-88
2022/08/18 05:11:34;;;;;;;96.97;48.70;;;;;;;20.61;59.33;99939.50;4981016;28;20043;-87
2022/08/18 05:14:03;;;;;;;95.47;46.00;;;;;;;20.58;59.52;99921.59;4996620;28;20049;-89
2022/08/18 05:16:35;;;;;;;96.07;44.38;;;;;;;20.77;59.39;99937.44;4994880;28;20046;-90
2022/08/18 05:19:52;;;;;;;92.32;44.97;;;;;;;21.04;60.11;99973.72;4996498;28;20113;-89
2022/08/18 05:22:21;;;;;;;80.78;41.33;;;;;;;20.70;59.50;99920.66;4984439;28;20042;-94
2022/08/18 05:24:47;;;;;;;91.38;41.25;;;;;;;20.73;59.42;99917.13;4998208;28;20563;-86
2022/08/18 05:28:18;;;;;;;85.00;40.55;;;;;;;21.10;59.60;99978.59;4995252;28;20137;-87
2022/08/18 05:30:53;;;;;;;79.50;38.55;;;;;;;20.76;58.66;99916.41;4978605;28;20133;-88
2022/08/18 05:33:20;;;;;;;79.70;36.27;;;;;;;20.95;59.46;99940.56;5000018;28;20045;-86
2022/08/18 05:36:11;;;;;;;84.72;39.33;;;;;;;21.11;59.09;99951.59;4996586;28;20042;-88
2022/08/18 05:39:06;;;;;;;85.13;38.33;;;;;;;21.14;58.46;99939.75;4996307;28;20098;-96
2022/08/18 05:41:45;;;;;;;73.25;37.25;;;;;;;21.37;58.51;99962.03;4976960;28;20046;-86
2022/08/18 05:44:42;;;;;;;75.20;36.30;;;;;;;20.99;58.83;99899.78;4960710;28;20129;-86
2022/08/18 05:47:33;;;;;;;97.93;37.55;;;;;;;21.53;57.86;99984.19;4972471;28;20034;-87
2022/08/18 05:50:12;;;;;;;85.28;36.67;;;;;;;21.35;58.12;99942.94;4971437;28;20098;-87
2022/08/18 05:59:34;;;;;;;93.63;40.40;;;;;;;21.78;57.56;99990.97;4953477;28;20051;-85
2022/08/18 06:02:30;;;;;;;91.75;39.40;;;;;;;21.86;57.84;99989.13;4954175;28;20050;-85
2022/08/18 06:05:37;;;;;;;99.60;40.25;;;;;;;21.52;58.06;99926.91;4953966;28;20492;-90
2022/08/18 06:09:02;;;;;;;201.55;43.88;;;;;;;22.02;57.36;99991.75;4922455;28;20051;-86
2022/08/18 06:11:28;;;;;;;93.75;40.15;;;;;;;22.04;57.42;99978.25;4955144;28;20050;-90
2022/08/18 06:14:24;;;;;;;101.75;41.28;;;;;;;22.10;57.99;99973.97;4955861;28;20098;-84
2022/08/18 06:21:06;;;;;;;112.18;39.95;;;;;;;22.27;56.88;99979.03;4979990;28;20096;-86
2022/08/18 06:24:24;;;;;;;86.55;40.85;;;;;;;22.45;57.18;99993.22;4994720;23;20049;-87
2022/08/18 06:26:58;;;;;;;115.25;41.28;;;;;;;22.54;57.21;99998.50;4989739;28;20409;-84
2022/08/18 06:29:33;;;;;;;111.40;42.35;;;;;;;22.63;57.01;99996.25;4974323;28;20507;-86
2022/08/18 06:32:27;;;;;;;124.53;42.13;;;;;;;22.71;57.06;99991.56;4976622;28;20041;-86
2022/08/18 06:35:07;;;;;;;122.88;43.10;;;;;;;22.80;56.13;99999.66;4974587;28;20046;-91
2022/08/18 06:41:49;;;;;;;120.03;42.97;;;;;;;23.00;55.81;100003.09;4913669;29;20059;-89
2022/08/18 06:44:20;;;;;;;116.70;44.10;;;;;;;22.82;56.53;99961.06;4900727;29;20094;-85
2022/08/18 06:47:10;;;;;;;131.77;44.30;;;;;;;23.01;55.66;99988.75;4924322;29;20103;-87
2022/08/18 06:50:11;;;;;;;96.00;43.40;;;;;;;23.21;55.49;100001.38;4924846;29;20044;-86
2022/08/18 06:53:01;;;;;;;132.90;45.35;;;;;;;23.29;55.32;100007.03;4914191;29;20063;-87
2022/08/18 06:55:49;;;;;;;87.28;41.03;;;;;;;23.35;55.31;100000.72;4914757;29;20103;-86
2022/08/18 06:59:12;;;;;;;107.55;44.65;;;;;;;23.28;54.72;99978.31;4914807;29;20052;-90
2022/08/18 07:10:20;;;;;;;127.70;39.45;;;;;;;23.95;53.95;99998.91;4973006;23;20431;-89
2022/08/18 07:12:46;;;;;;;90.97;33.75;;;;;;;23.57;53.45;99914.41;4990646;28;20505;-88
2022/08/18 07:16:30;;;;;;;92.38;30.45;;;;;;;24.29;53.38;99994.75;5006530;28;20061;-96
2022/08/18 07:19:21;;;;;;;57.10;26.40;;;;;;;24.30;51.35;99987.16;4979012;28;20042;-89
2022/08/18 07:22:17;;;;;;;71.63;26.08;;;;;;;24.48;51.03;99999.28;4995654;28;20046;-87
2022/08/18 07:24:46;;;;;;;84.47;23.50;;;;;;;24.50;50.17;99993.28;4962651;28;20050;-87
2022/08/18 07:27:16;;;;;;;75.05;24.17;;;;;;;24.63;50.71;99997.34;4988814;28;20056;-87
2022/08/18 07:30:12;;;;;;;74.82;22.30;;;;;;;24.75;51.82;99988.63;5002089;28;20042;-87
2022/08/18 07:32:45;;;;;;;64.30;18.85;;;;;;;24.70;47.50;99977.03;4979552;28;20101;-87
2022/08/18 07:35:16;;;;;;;77.78;16.77;;;;;;;24.81;50.45;99986.28;4979970;28;20054;-88
2022/08/18 07:38:00;;;;;;;53.67;16.95;;;;;;;24.85;48.97;99987.88;4963423;28;20045;-87
2022/08/18 07:40:43;;;;;;;51.28;16.00;;;;;;;24.88;48.50;99985.50;4996596;28;20455;-86
2022/08/18 07:43:38;;;;;;;90.30;17.90;;;;;;;24.89;49.88;99981.50;4980723;28;20148;-86
2022/08/18 07:46:35;;;;;;;44.75;15.32;;;;;;;24.96;48.79;99993.50;4980144;28;20073;-88
2022/08/18 07:49:05;;;;;;;68.45;16.27;;;;;;;24.85;48.68;99965.50;4994758;28;20100;-88
2022/08/18 07:52:25;;;;;;;79.43;18.52;;;;;;;25.20;49.06;99988.41;4997155;28;20093;-89
2022/08/18 07:55:15;;;;;;;59.13;18.88;;;;;;;25.30;48.68;99991.25;4984509;28;20034;-87
2022/08/18 08:04:38;;;;;;;30.77;12.90;;;;;;;25.75;46.96;99982.50;4955586;29;20571;-91
2022/08/18 08:07:15;;;;;;;31.60;12.18;;;;;;;25.82;47.36;99971.31;4938750;29;20047;-90
2022/08/18 08:10:19;;;;;;;57.33;14.68;;;;;;;25.94;45.57;99970.91;4939386;28;20129;-91
2022/08/18 08:13:07;;;;;;;43.45;15.27;;;;;;;26.05;45.60;99970.09;4953997;28;20058;-88
2022/08/18 08:16:00;;;;;;;58.10;14.27;;;;;;;26.18;45.33;99974.88;4953883;28;20101;-87
2022/08/18 08:18:40;;;;;;;81.22;16.77;;;;;;;26.33;42.82;99977.69;4952751;28;20417;-88
2022/08/18 08:21:18;;;;;;;70.07;15.95;;;;;;;26.44;44.93;99984.84;4948728;29;20142;-88
2022/08/18 08:24:33;;;;;;;54.75;11.80;;;;;;;26.55;44.49;99979.22;4955398;28;20118;-88
2022/08/18 08:27:15;;;;;;;37.17;10.15;;;;;;;26.55;42.64;99958.81;4938782;29;20051;-89
2022/08/18 08:29:41;;;;;;;57.58;18.45;;;;;;;26.62;42.91;99968.00;4948913;28;20199;-87
2022/08/18 08:35:18;;;;;;;86.43;18.65;;;;;;;26.58;42.27;99922.34;4955494;28;20039;-87
2022/08/18 08:37:59;;;;;;;53.30;10.52;;;;;;;27.00;42.61;99976.66;4985397;28;20432;-90
2022/08/18 08:40:39;;;;;;;87.03;16.45;;;;;;;26.92;41.04;99947.00;4973301;28;20042;-88
2022/08/18 08:43:17;;;;;;;65.28;14.70;;;;;;;27.08;41.22;99971.78;4979194;28;20042;-88
2022/08/18 08:46:31;;;;;;;49.45;13.02;;;;;;;27.15;39.67;99963.34;4979483;28;20120;-88
2022/08/18 08:49:19;;;;;;;46.38;12.75;;;;;;;27.27;39.45;99965.69;4935255;29;20053;-89
2022/08/18 08:55:08;;;;;;;63.08;15.30;;;;;;;27.33;39.06;99955.63;4940438;29;20660;-88
2022/08/18 08:58:25;;;;;;;69.85;17.15;;;;;;;27.35;40.01;99958.84;4952836;28;20079;-89
2022/08/18 09:01:13;;;;;;;53.85;9.52;;;;;;;27.42;39.29;99969.22;4937633;29;20047;-88
2022/08/18 09:03:58;;;;;;;59.15;16.25;;;;;;;27.26;39.79;99930.41;4937916;29;20493;-89
2022/08/18 09:06:50;;;;;;;44.75;14.15;;;;;;;27.40;38.77;99943.56;4939461;29;20059;-89
2022/08/18 09:09:43;;;;;;;74.85;16.70;;;;;;;27.58;39.02;99960.25;4925125;29;20051;-88
2022/08/18 09:12:35;;;;;;;107.85;27.83;;;;;;;27.63;38.67;99960.63;4943866;29;20053;-91
2022/08/18 09:15:44;;;;;;;50.92;13.30;;;;;;;27.66;36.82;99958.22;4946544;29;20090;-92
2022/08/18 09:18:47;;;;;;;58.28;17.05;;;;;;;27.66;36.44;99952.59;4954992;29;20142;-90
2022/08/18 09:21:43;;;;;;;116.88;19.50;;;;;;;27.61;38.54;99939.78;4953658;29;20547;-90
2022/08/18 09:24:19;;;;;;;119.40;18.02;;;;;;;27.77;38.43;99958.94;4954997;29;20047;-92
2022/08/18 09:27:12;;;;;;;55.60;15.73;;;;;;;27.87;37.37;99958.03;4956771;28;20188;-92
2022/08/18 09:34:32;;;;;;;57.08;19.27;;;;;;;27.87;37.29;99947.59;4938281;29;20074;-92
2022/08/18 09:37:16;;;;;;;60.35;19.83;;;;;;;27.73;37.48;99916.78;4993909;28;20093;-91
2022/08/18 09:43:53;;;;;;;163.40;22.90;;;;;;;27.91;35.75;99946.75;4984694;28;20523;-90
2022/08/18 09:46:41;;;;;;;91.05;20.55;;;;;;;27.95;37.16;99958.78;4972483;28;20387;-91
2022/08/18 09:49:45;;;;;;;72.45;26.58;;;;;;;28.06;35.97;99962.28;4973244;28;20156;-88
2022/08/18 09:52:36;;;;;;;76.35;28.30;;;;;;;28.17;35.48;99948.91;4997881;28;20053;-92
2022/08/18 09:55:06;;;;;;;54.95;18.13;;;;;;;28.24;36.26;99964.91;4944921;28;20105;-91
2022/08/18 09:57:39;;;;;;;74.90;22.42;;;;;;;28.18;36.73;99930.84;4976854;28;20516;-88
2022/08/18 10:00:30;;;;;;;80.28;17.65;;;;;;;28.34;37.16;99939.50;4983681;28;20121;-89
2022/08/18 10:02:58;;;;;;;119.13;22.80;;;;;;;28.39;34.12;99943.06;4961481;28;20518;-89
2022/08/18 10:06:18;;;;;;;133.82;20.88;;;;;;;28.19;33.93;99926.81;4959820;28;20062;-89
2022/08/18 10:09:17;;;;;;;72.95;22.05;;;;;;;28.08;32.47;99921.31;4954949;29;20054;-88
2022/08/18 10:12:09;;;;;;;166.30;47.38;;;;;;;28.33;33.03;99959.59;4940058;29;20043;-90
2022/08/18 10:15:23;;;;;;;65.72;11.32;;;;;;;28.38;31.62;99945.09;4930871;29;20062;-94
2022/08/18 10:18:14;;;;;;;128.38;14.77;;;;;;;28.43;32.12;99941.03;4934152;29;20532;-88
2022/08/18 10:21:07;;;;;;;48.95;14.10;;;;;;;28.48;33.36;99940.59;4948923;29;20047;-88
2022/08/18 10:24:04;;;;;;;39.97;13.43;;;;;;;28.50;28.85;99941.75;4917939;29;20059;-93
2022/08/18 10:27:20;;;;;;;106.85;26.50;;;;;;;28.24;29.30;99878.53;4930264;29;20426;-90
2022/08/18 10:34:01;;;;;;;50.80;20.17;;;;;;;28.89;31.96;99932.00;4916101;29;20063;-87
2022/08/18 10:37:08;;;;;;;66.85;11.27;;;;;;;28.97;32.75;99941.13;4944237;29;20562;-88
2022/08/18 10:39:53;;;;;;;88.53;18.60;;;;;;;28.76;29.92;99886.75;4944908;29;20044;-86
2022/08/18 10:43:07;;;;;;;37.83;12.47;;;;;;;29.15;29.72;99935.31;4959617;22;20551;-87
2022/08/18 10:46:00;;;;;;;67.10;19.27;;;;;;;28.75;30.06;99862.66;4919345;29;20589;-87
2022/08/18 10:57:24;;;;;;;72.90;15.15;;;;;;;29.34;30.88;99919.72;4891804;28;20056;-87
2022/08/18 11:00:10;;;;;;;65.70;18.02;;;;;;;29.36;31.02;99920.88;4980910;28;20035;-86
2022/08/18 11:06:55;;;;;;;86.68;20.35;;;;;;;29.49;30.64;99921.88;4974798;28;20038;-91
2022/08/18 11:09:42;;;;;;;73.30;11.93;;;;;;;29.00;30.13;99848.22;4978138;28;20046;-89
2022/08/18 11:19:53;;;;;;;91.18;22.48;;;;;;;29.35;28.33;99907.25;5254055;22;20053;-92
2022/08/18 11:27:04;;;;;;;64.15;12.55;;;;;;;29.08;28.17;99874.28;5020899;22;20077;-92
2022/08/18 11:29:39;;;;;;;75.80;11.95;;;;;;;29.38;27.54;99909.22;5040740;28;20072;-87
2022/08/18 11:32:47;;;;;;;51.30;9.98;;;;;;;29.39;27.00;99913.59;4996811;28;20052;-89
2022/08/18 11:35:29;;;;;;;145.55;19.40;;;;;;;29.41;26.87;99914.78;4993371;28;20069;-87
2022/08/18 11:38:02;;;;;;;116.03;17.13;;;;;;;29.40;27.61;99915.19;4982770;28;20065;-86
2022/08/18 11:40:53;;;;;;;54.58;8.45;;;;;;;29.60;27.89;99916.09;5016302;28;20045;-85
2022/08/18 11:43:35;;;;;;;59.45;14.02;;;;;;;29.62;26.73;99901.59;5045126;28;20041;-88
2022/08/18 11:46:28;;;;;;;50.22;14.20;;;;;;;29.88;27.00;99914.81;5006068;28;20059;-89
2022/08/18 11:48:54;;;;;;;86.85;23.80;;;;;;;29.72;25.40;99890.13;5037341;28;20048;-85
2022/08/18 11:52:05;;;;;;;127.55;23.73;;;;;;;29.90;26.10;99914.38;5021951;28;20593;-84
2022/08/18 11:54:39;;;;;;;70.80;8.55;;;;;;;29.78;26.38;99910.16;5035653;28;20049;-89
2022/08/18 11:57:31;;;;;;;66.53;10.27;;;;;;;29.96;26.01;99923.91;5015881;28;20049;-87
2022/08/18 11:59:58;;;;;;;73.50;14.75;;;;;;;30.02;26.14;99915.78;5018057;28;20132;-87
2022/08/18 12:02:25;;;;;;;69.10;14.05;;;;;;;29.86;24.50;99891.09;5000658;28;20073;-86
2022/08/18 12:04:56;;;;;;;63.35;8.05;;;;;;;29.86;24.69;99897.53;5034030;28;20414;-85
2022/08/18 12:07:50;;;;;;;51.63;12.25;;;;;;;29.84;25.23;99894.34;5000157;28;20083;-85
2022/08/18 12:10:24;;;;;;;53.80;12.70;;;;;;;29.96;26.70;99904.19;4983076;28;20073;-85
2022/08/18 12:12:52;;;;;;;67.40;10.93;;;;;;;29.92;26.27;99895.78;4985810;28;20132;-85
2022/08/18 12:15:20;;;;;;;37.63;8.82;;;;;;;30.13;26.45;99908.72;5002220;28;20087;-89
2022/08/18 12:17:47;;;;;;;59.53;9.85;;;;;;;30.26;26.61;99905.25;5036685;28;20434;-86
2022/08/18 12:20:15;;;;;;;57.83;12.68;;;;;;;30.26;26.81;99908.09;5018530;28;20037;-86
2022/08/18 12:25:36;;;;;;;52.50;12.15;;;;;;;30.44;26.95;99902.88;5035850;28;20056;-85
2022/08/18 12:28:03;;;;;;;45.88;7.63;;;;;;;30.52;26.14;99898.69;5034407;28;20041;-85
2022/08/18 12:32:58;;;;;;;35.47;8.32;;;;;;;30.57;25.56;99878.44;5034177;28;20045;-85
2022/08/18 12:35:25;;;;;;;115.10;11.40;;;;;;;30.67;24.83;99883.03;5016250;28;20583;-85
2022/08/18 12:38:16;;;;;;;73.75;10.57;;;;;;;30.66;26.55;99889.91;5016072;28;20175;-88
2022/08/18 12:40:43;;;;;;;84.68;12.35;;;;;;;30.51;25.75;99897.09;4999913;28;20038;-86
2022/08/18 12:43:11;;;;;;;71.07;9.15;;;;;;;30.32;23.90;99870.47;5025771;22;20049;-88
2022/08/18 12:45:40;;;;;;;67.85;11.90;;;;;;;30.42;24.27;99892.03;5031315;22;20115;-89
2022/08/18 12:48:33;;;;;;;65.95;9.68;;;;;;;30.18;22.91;99859.47;4980322;28;20046;-91
2022/08/18 12:51:28;;;;;;;101.85;9.15;;;;;;;30.21;24.57;99878.38;4990821;23;20047;-89
2022/08/18 12:53:54;;;;;;;92.57;9.48;;;;;;;29.99;25.24;99852.56;5029846;22;20058;-86
2022/08/18 13:03:13;;;;;;;93.40;19.08;;;;;;;30.29;28.17;99865.69;4953337;29;20043;-84
2022/08/18 13:05:46;;;;;;;49.50;15.07;;;;;;;30.39;27.21;99890.06;4939103;29;20054;-83
2022/08/18 13:08:18;;;;;;;99.53;12.18;;;;;;;30.50;27.92;99889.88;4953945;29;20059;-84
2022/08/18 13:11:00;;;;;;;214.45;27.20;;;;;;;30.50;27.17;99878.59;4954931;29;20080;-87
2022/08/18 13:13:26;;;;;;;177.23;23.17;;;;;;;30.21;27.40;99821.19;4952841;28;20043;-85
2022/08/18 13:16:17;;;;;;;94.03;18.90;;;;;;;30.51;26.85;99882.97;4933305;29;20163;-85
2022/08/18 13:18:43;;;;;;;72.50;14.60;;;;;;;30.56;27.67;99884.50;4932638;29;20131;-87
2022/08/18 13:21:16;;;;;;;98.07;15.15;;;;;;;30.28;27.44;99844.38;4918263;29;20055;-88
2022/08/18 13:23:43;;;;;;;39.67;11.85;;;;;;;30.61;27.92;99884.78;4904004;29;20070;-86
2022/08/18 13:26:24;;;;;;;41.80;10.48;;;;;;;30.57;26.26;99864.31;4935136;29;20043;-87
2022/08/18 13:28:50;;;;;;;74.93;12.57;;;;;;;30.38;26.40;99834.09;4916239;29;20095;-85
2022/08/18 13:31:16;;;;;;;62.28;10.88;;;;;;;30.25;26.95;99830.34;4918364;29;20486;-87
2022/08/18 13:33:42;;;;;;;;;;;;;;;30.56;27.63;99892.94;4934871;29;20126;-89
2022/08/18 13:36:08;;;;;;;117.63;14.70;;;;;;;30.32;26.63;99850.72;4902470;29;19923;-86
2022/08/18 13:38:36;;;;;;;57.15;11.23;;;;;;;30.27;26.57;99837.16;4934619;29;20039;-90
2022/08/18 13:41:04;;;;;;;52.38;10.80;;;;;;;30.26;27.04;99848.84;4983704;28;20586;-86
2022/08/18 13:43:36;;;;;;;60.10;11.00;;;;;;;30.51;27.89;99882.19;4957860;28;20045;-85
2022/08/18 13:46:04;;;;;;;114.22;15.10;;;;;;;30.53;27.69;99882.53;4958227;28;20038;-87
2022/08/18 13:48:32;;;;;;;198.35;20.65;;;;;;;30.43;28.31;99887.16;4958216;28;20049;-86
2022/08/18 13:51:01;;;;;;;93.13;11.43;;;;;;;30.32;26.81;99864.84;4954370;28;20129;-86
2022/08/18 13:53:28;;;;;;;146.43;18.80;;;;;;;30.27;27.41;99862.53;5002396;28;20889;-85
2022/08/18 13:55:59;;;;;;;77.72;15.13;;;;;;;30.22;27.82;99862.25;5009368;28;20585;-86
2022/08/18 13:58:28;;;;;;;155.82;19.85;;;;;;;30.35;29.20;99885.75;5010258;28;20053;-87
2022/08/18 14:01:02;;;;;;;231.23;23.65;;;;;;;30.35;26.58;99885.75;4984457;28;20065;-86
2022/08/18 14:03:29;;;;;;;174.45;18.23;;;;;;;30.08;28.42;99840.75;5011895;28;20050;-85
2022/08/18 14:06:01;;;;;;;179.15;18.40;;;;;;;29.95;28.87;99837.75;4971616;28;20057;-86
2022/08/18 14:08:29;;;;;;;54.90;10.38;;;;;;;30.16;27.79;99885.25;4971618;28;20051;-86
2022/08/18 14:10:59;;;;;;;103.35;13.40;;;;;;;29.96;29.53;99856.25;4971492;28;20042;-87
2022/08/18 14:13:27;;;;;;;109.70;13.90;;;;;;;30.17;29.17;99886.09;4971731;28;20141;-86
2022/08/18 14:15:57;;;;;;;74.97;11.75;;;;;;;29.93;29.11;99857.13;4955206;28;20037;-86
2022/08/18 14:18:25;;;;;;;148.30;16.48;;;;;;;30.01;28.33;99886.78;4983029;28;20054;-89
2022/08/18 14:27:52;;;;;;;66.75;14.63;;;;;;;29.78;28.41;99859.44;4950524;28;20050;-94
2022/08/18 14:30:35;;;;;;;175.38;17.73;;;;;;;29.73;28.71;99860.72;4960445;28;20043;-92
2022/08/18 14:33:06;;;;;;;135.65;16.77;;;;;;;29.38;29.46;99802.19;5016904;28;20041;-89
2022/08/18 14:35:33;;;;;;;132.82;18.08;;;;;;;29.61;28.98;99847.25;5003495;28;20490;-94
2022/08/18 14:38:00;;;;;;;93.90;13.82;;;;;;;29.60;30.15;99851.28;5017843;28;20037;-92
2022/08/18 14:40:32;;;;;;;181.95;15.45;;;;;;;29.41;30.17;99829.50;5013596;28;20029;-93
2022/08/18 14:43:24;;;;;;;82.38;12.35;;;;;;;29.90;29.58;99900.28;5037433;28;20075;-94
2022/08/18 14:45:55;;;;;;;62.08;11.85;;;;;;;29.83;28.52;99881.47;5026965;28;20049;-91
2022/08/18 14:48:28;;;;;;;100.68;13.45;;;;;;;29.78;27.97;99864.28;5010099;28;20132;-92